RKSS/GMP METAR and TAF weather

Enter ICAO airport designator
Station Type Date Time Source
RKSS METAR 2020/07/08 00:00 UTC NOAA

RKSS 080000Z 01002KT 9999 SCT040 26/21 Q1005 NOSIG


Station Type Date Time Source
RKSS Decoded METAR 2020/07/08 00:00 UTC NOAA

Seoul / Kimp'O International Airport, Korea, South (RKSS) 37-33N 126-48E 18M
Jul 07, 2020 - 08:00 PM EDT / 2020.07.08 0000 UTC
Wind: from the N (010 degrees) at 2 MPH (2 KT):0
Visibility: greater than 7 mile(s):0
Sky conditions: partly cloudy
Temperature: 78 F (26 C)
Dew Point: 69 F (21 C)
Relative Humidity: 73%
Pressure (altimeter): 29.68 in. Hg (1005 hPa)
ob: RKSS 080000Z 01002KT 9999 SCT040 26/21 Q1005 NOSIG
cycle: 0

Station Type Date Time Source
RKSS TAF 2020/07/07 18:48 UTC NOAA

TAF RKSS 071700Z 0718/0824 21005KT 4000 BR SCT030 TN20/0720Z TX30/0806Z TN19/0821Z
BECMG 0721/0722 6000 NSW
BECMG 0802/0803 27007KT CAVOK
BECMG 0811/0812 21005KT 4000 BR SCT010
BECMG 0817/0818 1200 BKN005
BECMG 0821/0822 4000 SCT010

Example: see airport list